createdAt,value
2023-04-06T00:00:50.475Z,6.32
2023-04-06T00:03:19.312Z,7.15
2023-04-06T00:05:48.001Z,6.65
2023-04-06T00:08:16.737Z,7.22
2023-04-06T00:10:43.912Z,6.70
2023-04-06T00:13:11.553Z,6.80
2023-04-06T00:15:38.746Z,6.57
2023-04-06T00:18:06.018Z,6.70
2023-04-06T00:20:33.413Z,6.20
2023-04-06T00:23:00.647Z,6.43
2023-04-06T00:25:29.184Z,6.25
2023-04-06T00:27:56.508Z,6.80
2023-04-06T00:30:23.698Z,6.10
2023-04-06T00:32:51.067Z,6.25
2023-04-06T00:35:18.526Z,6.30
2023-04-06T00:37:47.896Z,6.88
2023-04-06T00:40:15.639Z,6.32
2023-04-06T00:42:44.599Z,6.13
2023-04-06T00:45:11.942Z,6.70
2023-04-06T00:47:40.585Z,6.53
2023-04-06T00:50:08.690Z,6.90
2023-04-06T00:52:36.733Z,6.78
2023-04-06T00:55:06.453Z,6.97
2023-04-06T00:57:38.185Z,6.50
2023-04-06T01:00:08.420Z,6.27
2023-04-06T01:02:36.585Z,6.53
2023-04-06T01:05:04.342Z,6.60
2023-04-06T01:07:51.745Z,6.82
2023-04-06T01:10:24.539Z,6.97
2023-04-06T01:12:53.031Z,6.67
2023-04-06T01:15:40.014Z,6.63
2023-04-06T01:18:11.234Z,6.80
2023-04-06T01:20:43.468Z,6.50
2023-04-06T01:23:12.541Z,6.22
2023-04-06T01:25:46.406Z,6.33
2023-04-06T01:28:13.880Z,6.00
2023-04-06T01:30:52.792Z,6.30
2023-04-06T01:33:39.388Z,6.45
2023-04-06T01:36:09.868Z,6.57
2023-04-06T01:38:39.013Z,6.43
2023-04-06T01:41:06.407Z,6.25
2023-04-06T01:43:45.636Z,6.45
2023-04-06T01:46:12.925Z,6.68
2023-04-06T01:48:43.075Z,6.95
2023-04-06T01:51:18.053Z,6.50
2023-04-06T01:53:52.666Z,6.05
2023-04-06T01:56:22.730Z,6.82
2023-04-06T01:59:11.304Z,6.88
2023-04-06T02:01:42.589Z,6.85
2023-04-06T02:04:09.843Z,6.90
2023-04-06T02:06:37.578Z,6.70
2023-04-06T02:09:08.256Z,6.63
2023-04-06T02:11:36.508Z,7.10
2023-04-06T02:14:03.876Z,7.00
2023-04-06T02:16:34.957Z,6.73
2023-04-06T02:19:02.171Z,7.43
2023-04-06T02:21:29.529Z,7.10
2023-04-06T02:23:56.767Z,7.60
2023-04-06T02:26:25.378Z,7.57
2023-04-06T02:28:52.617Z,7.43
2023-04-06T02:31:19.857Z,7.60
2023-04-06T02:33:47.306Z,8.02
2023-04-06T02:36:16.334Z,7.95
2023-04-06T02:38:43.651Z,7.55
2023-04-06T02:41:11.379Z,8.27
2023-04-06T02:43:40.722Z,8.75
2023-04-06T02:46:16.666Z,9.13
2023-04-06T02:48:43.880Z,8.77
2023-04-06T02:51:11.069Z,9.13
2023-04-06T02:53:38.765Z,9.00
2023-04-06T02:56:07.114Z,9.15
2023-04-06T02:58:46.613Z,8.88
2023-04-06T03:01:14.253Z,9.10
2023-04-06T03:03:43.143Z,8.48
2023-04-06T03:06:17.090Z,7.60
2023-04-06T03:08:45.018Z,8.25
2023-04-06T03:11:12.391Z,8.05
2023-04-06T03:13:42.503Z,8.30
2023-04-06T03:16:12.488Z,8.02
2023-04-06T03:18:41.511Z,8.43
2023-04-06T03:21:08.705Z,8.20
2023-04-06T03:23:53.007Z,8.95
2023-04-06T03:26:20.683Z,8.02
2023-04-06T03:28:47.868Z,8.73
2023-04-06T03:31:17.080Z,8.60
2023-04-06T03:33:55.233Z,8.60
2023-04-06T03:36:35.306Z,8.65
2023-04-06T03:39:04.365Z,8.27
2023-04-06T03:41:35.160Z,8.95
2023-04-06T03:44:29.842Z,8.57
2023-04-06T03:46:58.459Z,8.05
2023-04-06T03:49:26.458Z,8.15
2023-04-06T03:51:54.936Z,8.15
2023-04-06T03:54:22.230Z,8.90
2023-04-06T03:56:49.412Z,8.57
2023-04-06T03:59:17.028Z,8.80
2023-04-06T04:01:44.303Z,9.50
2023-04-06T04:04:12.904Z,8.90
2023-04-06T04:06:40.278Z,8.70
2023-04-06T04:09:09.146Z,9.03
2023-04-06T04:11:36.742Z,8.85
2023-04-06T04:14:04.407Z,8.68
2023-04-06T04:16:31.687Z,8.05
2023-04-06T04:19:01.842Z,8.52
2023-04-06T04:21:32.604Z,8.10
2023-04-06T04:24:04.324Z,8.15
2023-04-06T04:26:34.169Z,8.38
2023-04-06T04:29:01.323Z,8.18
2023-04-06T04:31:28.565Z,8.18
2023-04-06T04:34:01.030Z,8.10
2023-04-06T04:36:33.174Z,7.30
2023-04-06T04:39:04.088Z,7.82
2023-04-06T04:41:36.961Z,6.60
2023-04-06T04:44:07.713Z,7.57
2023-04-06T04:46:35.345Z,7.07
2023-04-06T04:49:03.089Z,7.25
2023-04-06T04:51:33.735Z,7.28
2023-04-06T04:54:17.353Z,7.15
2023-04-06T04:56:44.518Z,7.18
2023-04-06T04:59:25.402Z,6.73
2023-04-06T05:02:04.779Z,6.35
2023-04-06T05:04:42.103Z,7.03
2023-04-06T05:07:16.305Z,7.30
2023-04-06T05:09:44.550Z,6.78
2023-04-06T05:12:13.093Z,6.93
2023-04-06T05:14:50.877Z,6.85
2023-04-06T05:17:20.237Z,6.43
2023-04-06T05:19:48.009Z,6.53
2023-04-06T05:22:22.051Z,7.32
2023-04-06T05:24:57.913Z,6.40
2023-04-06T05:27:25.511Z,6.40
2023-04-06T05:29:55.566Z,6.45
2023-04-06T05:32:26.432Z,6.82
2023-04-06T05:34:54.546Z,6.28
2023-04-06T05:37:24.089Z,6.35
2023-04-06T05:39:51.583Z,6.53
2023-04-06T05:42:20.076Z,6.97
2023-04-06T05:44:52.669Z,6.43
2023-04-06T05:47:19.877Z,5.77
2023-04-06T05:49:52.445Z,6.32
2023-04-06T05:52:30.858Z,6.90
2023-04-06T05:54:58.126Z,6.20
2023-04-06T05:57:26.248Z,6.90
2023-04-06T05:59:53.644Z,7.00
2023-04-06T06:02:22.976Z,7.10
2023-04-06T06:04:52.459Z,7.72
2023-04-06T06:07:20.480Z,7.47
2023-04-06T06:09:59.700Z,7.47
2023-04-06T06:12:33.041Z,7.50
2023-04-06T06:15:01.629Z,7.47
2023-04-06T06:17:30.317Z,8.02
2023-04-06T06:19:58.009Z,7.18
2023-04-06T06:22:27.687Z,7.97
2023-04-06T06:24:55.064Z,7.30
2023-04-06T06:27:23.568Z,7.50
2023-04-06T06:29:50.998Z,6.60
2023-04-06T06:32:19.147Z,6.50
2023-04-06T06:34:50.135Z,6.15
2023-04-06T06:37:18.837Z,5.87
2023-04-06T06:39:46.321Z,5.68
2023-04-06T06:42:14.771Z,6.57
2023-04-06T06:45:04.248Z,5.82
2023-04-06T06:47:31.441Z,5.57
2023-04-06T06:49:58.683Z,6.00
2023-04-06T06:52:25.894Z,5.95
2023-04-06T06:54:54.383Z,5.75
2023-04-06T06:57:22.629Z,6.18
2023-04-06T06:59:49.927Z,5.97
2023-04-06T07:02:20.597Z,5.70
2023-04-06T07:04:49.075Z,6.30
2023-04-06T07:07:16.574Z,6.20
2023-04-06T07:09:44.051Z,5.80
2023-04-06T07:12:11.332Z,5.40
2023-04-06T07:14:38.556Z,5.80
2023-04-06T07:17:05.911Z,5.63
2023-04-06T07:19:34.520Z,5.13
2023-04-06T07:22:02.010Z,5.18
2023-04-06T07:24:29.290Z,4.75
2023-04-06T07:26:57.588Z,5.03
2023-04-06T07:29:24.872Z,5.20
2023-04-06T07:31:52.668Z,4.68
2023-04-06T07:34:19.984Z,4.90
2023-04-06T07:36:48.656Z,4.50
2023-04-06T07:39:16.108Z,4.47
2023-04-06T07:41:43.384Z,5.75
2023-04-06T07:44:10.912Z,5.35
2023-04-06T07:46:38.816Z,4.55
2023-04-06T07:49:06.265Z,5.07
2023-04-06T07:51:37.180Z,5.97
2023-04-06T07:54:06.479Z,6.82
2023-04-06T07:56:33.825Z,9.20
2023-04-06T07:59:01.138Z,7.47
2023-04-06T08:01:29.239Z,6.45
2023-04-06T08:03:56.732Z,4.83
2023-04-06T08:06:24.120Z,5.00
2023-04-06T08:08:51.424Z,4.20
2023-04-06T08:11:20.044Z,3.90
2023-04-06T08:13:47.362Z,3.85
2023-04-06T08:16:14.577Z,3.20
2023-04-06T08:18:41.775Z,3.38
2023-04-06T08:21:09.011Z,3.92
2023-04-06T08:23:36.214Z,3.60
2023-04-06T08:26:03.418Z,3.10
2023-04-06T08:28:31.959Z,2.97
2023-04-06T08:30:59.168Z,3.53
2023-04-06T08:33:26.448Z,3.45
2023-04-06T08:35:53.648Z,3.08
2023-04-06T08:38:21.091Z,3.08
2023-04-06T08:40:50.669Z,3.13
2023-04-06T08:43:20.827Z,2.50
2023-04-06T08:45:49.534Z,2.72
2023-04-06T08:48:18.558Z,2.55
2023-04-06T08:50:46.038Z,2.13
2023-04-06T08:53:13.292Z,2.27
2023-04-06T08:55:42.916Z,2.40
2023-04-06T08:58:10.143Z,2.00
2023-04-06T09:00:40.267Z,2.67
2023-04-06T09:03:09.731Z,2.60
2023-04-06T09:05:37.253Z,2.10
2023-04-06T09:08:04.484Z,2.35
2023-04-06T09:10:32.971Z,2.50
2023-04-06T09:13:06.957Z,2.45
2023-04-06T09:15:34.819Z,2.30
2023-04-06T09:18:02.566Z,2.60
2023-04-06T09:20:31.143Z,2.78
2023-04-06T09:22:58.355Z,2.55
2023-04-06T09:25:27.780Z,2.35
2023-04-06T09:28:01.976Z,2.17
2023-04-06T09:30:29.249Z,2.17
2023-04-06T09:32:58.617Z,2.10
2023-04-06T09:35:27.722Z,2.30
2023-04-06T09:37:56.890Z,2.03
2023-04-06T09:40:25.166Z,2.03
2023-04-06T09:42:58.382Z,1.60
2023-04-06T09:45:26.290Z,1.85
2023-04-06T09:47:57.303Z,1.92
2023-04-06T09:50:26.619Z,1.42
2023-04-06T09:52:58.686Z,1.80
2023-04-06T09:55:31.857Z,2.30
2023-04-06T09:58:05.247Z,1.67
2023-04-06T10:00:35.273Z,1.88
2023-04-06T10:03:10.374Z,1.83
2023-04-06T10:05:43.262Z,1.60
2023-04-06T10:08:12.445Z,1.80
2023-04-06T10:10:40.269Z,1.95
2023-04-06T10:13:08.522Z,1.90
2023-04-06T10:15:35.842Z,1.98
2023-04-06T10:18:04.545Z,1.75
2023-04-06T10:20:40.625Z,1.80
2023-04-06T10:23:16.743Z,1.83
2023-04-06T10:25:54.444Z,1.85
2023-04-06T10:28:21.954Z,2.00
2023-04-06T10:30:49.324Z,1.80
2023-04-06T10:33:17.908Z,1.87
2023-04-06T10:35:45.456Z,1.80
2023-04-06T10:38:15.279Z,2.00
2023-04-06T10:40:47.961Z,1.90
2023-04-06T10:43:20.370Z,2.00
2023-04-06T10:45:56.904Z,1.93
2023-04-06T10:48:25.048Z,1.90
2023-04-06T10:50:53.893Z,2.10
2023-04-06T10:53:26.940Z,1.70
2023-04-06T10:55:56.613Z,1.83
2023-04-06T10:58:26.222Z,2.27
2023-04-06T11:00:54.705Z,1.90
2023-04-06T11:03:21.933Z,2.28
2023-04-06T11:05:51.130Z,2.03
2023-04-06T11:08:28.588Z,1.90
2023-04-06T11:11:06.265Z,1.97
2023-04-06T11:13:41.599Z,2.00
2023-04-06T11:16:14.071Z,2.03
2023-04-06T11:18:51.954Z,1.95
2023-04-06T11:21:19.812Z,2.10
2023-04-06T11:23:48.615Z,1.97
2023-04-06T11:26:16.450Z,2.05
2023-04-06T11:28:44.280Z,2.38
2023-04-06T11:31:12.447Z,2.20
2023-04-06T11:33:40.730Z,2.22
2023-04-06T11:36:08.726Z,2.10
2023-04-06T11:38:40.271Z,2.30
2023-04-06T11:41:09.080Z,2.13
2023-04-06T11:43:36.404Z,2.30
2023-04-06T11:46:04.630Z,2.30
2023-04-06T11:48:32.417Z,2.10
2023-04-06T11:51:02.040Z,2.28
2023-04-06T11:53:30.248Z,2.47
2023-04-06T11:55:57.600Z,2.20
2023-04-06T11:58:26.216Z,2.33
2023-04-06T12:00:53.754Z,2.43
2023-04-06T12:03:21.146Z,2.60
2023-04-06T12:05:48.547Z,2.40
2023-04-06T12:08:15.726Z,2.70
2023-04-06T12:10:42.916Z,2.45
2023-04-06T12:13:10.077Z,2.30
2023-04-06T12:15:38.672Z,2.58
2023-04-06T12:18:06.182Z,2.40
2023-04-06T12:20:33.512Z,2.28
2023-04-06T12:23:01.050Z,2.60
2023-04-06T12:25:28.876Z,2.70
2023-04-06T12:27:57.313Z,2.60
2023-04-06T12:30:24.502Z,2.40
2023-04-06T12:32:53.181Z,2.90
2023-04-06T12:35:20.400Z,2.30
2023-04-06T12:37:47.582Z,2.70
2023-04-06T12:40:15.846Z,2.20
2023-04-06T12:42:43.139Z,2.20
2023-04-06T12:45:11.273Z,2.30
2023-04-06T12:47:38.791Z,2.40
2023-04-06T12:50:08.581Z,2.17
2023-04-06T12:52:36.476Z,2.33
2023-04-06T12:55:03.939Z,2.33
2023-04-06T12:57:31.621Z,2.25
2023-04-06T12:59:59.267Z,2.30
2023-04-06T13:02:27.074Z,2.33
2023-04-06T13:04:54.350Z,2.28
2023-04-06T13:07:22.997Z,2.50
2023-04-06T13:09:50.641Z,2.50
2023-04-06T13:12:17.875Z,2.70
2023-04-06T13:14:45.312Z,2.73
2023-04-06T13:17:12.643Z,2.50
2023-04-06T13:19:39.815Z,2.38
2023-04-06T13:22:07.028Z,2.30
2023-04-06T13:24:35.547Z,2.10
2023-04-06T13:27:03.469Z,2.40
2023-04-06T13:29:30.850Z,3.08
2023-04-06T13:31:58.062Z,3.03
2023-04-06T13:34:25.886Z,2.50
2023-04-06T13:36:53.138Z,2.17
2023-04-06T13:39:20.582Z,2.37
2023-04-06T13:41:49.117Z,2.40
2023-04-06T13:44:16.331Z,2.85
2023-04-06T13:46:44.726Z,2.25
2023-04-06T13:49:11.895Z,2.53
2023-04-06T13:51:39.078Z,2.53
2023-04-06T13:54:06.351Z,2.45
2023-04-06T13:56:33.582Z,2.53
2023-04-06T13:59:03.846Z,2.47
2023-04-06T14:01:31.174Z,2.67
2023-04-06T14:03:58.526Z,2.40
2023-04-06T14:06:30.978Z,2.40
2023-04-06T14:08:59.163Z,2.30
2023-04-06T14:11:27.203Z,2.42
2023-04-06T14:13:56.572Z,2.28
2023-04-06T14:16:26.617Z,2.47
2023-04-06T14:18:53.918Z,1.95
2023-04-06T14:21:21.303Z,2.60
2023-04-06T14:23:48.587Z,2.55
2023-04-06T14:26:16.229Z,2.80
2023-04-06T14:28:43.471Z,2.50
2023-04-06T14:31:13.125Z,2.60
2023-04-06T14:33:42.864Z,2.70
2023-04-06T14:36:10.710Z,2.55
2023-04-06T14:38:38.404Z,2.33
2023-04-06T14:41:05.791Z,2.47
2023-04-06T14:43:33.303Z,2.55
2023-04-06T14:46:01.631Z,2.33
2023-04-06T14:48:29.391Z,2.35
2023-04-06T14:50:58.466Z,2.33
2023-04-06T14:53:27.090Z,2.60
2023-04-06T14:55:54.829Z,2.60
2023-04-06T14:58:23.769Z,2.40
2023-04-06T15:00:56.648Z,2.40
2023-04-06T15:03:26.353Z,2.65
2023-04-06T15:05:54.160Z,2.17
2023-04-06T15:08:23.387Z,2.15
2023-04-06T15:10:51.300Z,2.22
2023-04-06T15:13:19.184Z,2.50
2023-04-06T15:15:46.531Z,2.10
2023-04-06T15:18:13.702Z,2.50
2023-04-06T15:20:41.774Z,2.63
2023-04-06T15:23:09.019Z,2.47
2023-04-06T15:25:37.602Z,2.50
2023-04-06T15:28:04.825Z,2.10
2023-04-06T15:30:32.011Z,2.50
2023-04-06T15:33:06.760Z,2.40
2023-04-06T15:35:35.210Z,2.47
2023-04-06T15:38:03.503Z,2.10
2023-04-06T15:40:31.167Z,2.40
2023-04-06T15:42:59.876Z,2.30
2023-04-06T15:45:27.287Z,2.40
2023-04-06T15:47:54.469Z,2.63
2023-04-06T15:50:21.801Z,2.38
2023-04-06T15:52:48.963Z,2.40
2023-04-06T15:55:16.203Z,2.43
2023-04-06T15:57:43.393Z,2.08
2023-04-06T16:00:13.612Z,2.60
2023-04-06T16:02:41.258Z,2.20
2023-04-06T16:05:08.924Z,2.40
2023-04-06T16:07:36.329Z,2.43
2023-04-06T16:10:04.858Z,2.95
2023-04-06T16:12:33.870Z,2.40
2023-04-06T16:15:01.247Z,2.58
2023-04-06T16:17:29.847Z,2.40
2023-04-06T16:19:57.056Z,2.70
2023-04-06T16:22:24.320Z,2.13
2023-04-06T16:24:51.505Z,2.50
2023-04-06T16:27:18.696Z,2.55
2023-04-06T16:29:46.639Z,2.35
2023-04-06T16:32:13.977Z,2.57
2023-04-06T16:34:42.780Z,2.30
2023-04-06T16:37:09.987Z,2.45
2023-04-06T16:39:37.216Z,2.30
2023-04-06T16:42:04.921Z,2.20
2023-04-06T16:44:32.123Z,2.17
2023-04-06T16:47:00.180Z,2.28
2023-04-06T16:49:27.463Z,2.10
2023-04-06T16:51:56.442Z,2.30
2023-04-06T16:54:23.608Z,2.38
2023-04-06T16:56:50.797Z,2.20
2023-04-06T16:59:17.965Z,2.20
2023-04-06T17:01:45.580Z,2.10
2023-04-06T17:04:12.985Z,2.35
2023-04-06T17:06:40.568Z,2.08
2023-04-06T17:09:09.193Z,2.33
2023-04-06T17:11:46.097Z,1.95
2023-04-06T17:14:14.400Z,2.30
2023-04-06T17:16:41.635Z,2.58
2023-04-06T17:19:08.921Z,4.03
2023-04-06T17:21:36.187Z,2.43
2023-04-06T17:24:03.816Z,2.47
2023-04-06T17:26:32.545Z,2.38
2023-04-06T17:28:59.750Z,2.00
2023-04-06T17:31:27.131Z,2.30
2023-04-06T17:33:54.386Z,2.50
2023-04-06T17:36:22.013Z,2.50
2023-04-06T17:38:49.340Z,2.13
2023-04-06T17:41:16.655Z,2.20
2023-04-06T17:43:45.344Z,2.30
2023-04-06T17:46:13.015Z,2.20
2023-04-06T17:48:40.771Z,2.22
2023-04-06T17:51:08.018Z,2.50
2023-04-06T17:53:36.779Z,2.72
2023-04-06T17:56:04.842Z,3.10
2023-04-06T17:58:32.223Z,3.03
2023-04-06T18:01:06.238Z,3.20
2023-04-06T18:03:33.561Z,3.00
2023-04-06T18:06:09.492Z,2.85
2023-04-06T18:08:36.699Z,3.08
2023-04-06T18:11:04.275Z,3.10
2023-04-06T18:13:31.666Z,3.03
2023-04-06T18:16:02.105Z,3.10
2023-04-06T18:18:29.452Z,3.30
2023-04-06T18:20:56.696Z,3.20
2023-04-06T18:23:23.916Z,3.87
2023-04-06T18:25:51.290Z,5.10
2023-04-06T18:28:18.519Z,3.92
2023-04-06T18:30:45.714Z,3.60
2023-04-06T18:33:14.271Z,3.85
2023-04-06T18:35:42.729Z,4.00
2023-04-06T18:38:10.036Z,4.13
2023-04-06T18:40:38.505Z,4.50
2023-04-06T18:43:07.694Z,4.22
2023-04-06T18:45:35.851Z,4.35
2023-04-06T18:48:03.182Z,4.43
2023-04-06T18:50:31.755Z,4.15
2023-04-06T18:52:58.963Z,4.25
2023-04-06T18:55:26.643Z,4.68
2023-04-06T18:57:53.981Z,4.50
2023-04-06T19:00:21.340Z,4.97
2023-04-06T19:02:48.846Z,4.85
2023-04-06T19:05:16.526Z,5.00
2023-04-06T19:07:52.038Z,6.20
2023-04-06T19:10:19.473Z,5.45
2023-04-06T19:12:47.923Z,7.40
2023-04-06T19:15:15.277Z,6.50
2023-04-06T19:17:42.641Z,8.20
2023-04-06T19:20:10.838Z,6.22
2023-04-06T19:22:38.398Z,5.63
2023-04-06T19:25:08.994Z,5.37
2023-04-06T19:27:36.675Z,7.05
2023-04-06T19:30:04.852Z,5.50
2023-04-06T19:32:32.245Z,5.50
2023-04-06T19:34:59.762Z,5.28
2023-04-06T19:37:27.214Z,5.37
2023-04-06T19:39:54.473Z,5.47
2023-04-06T19:42:24.050Z,5.45
2023-04-06T19:44:51.285Z,5.60
2023-04-06T19:47:18.913Z,5.57
2023-04-06T19:49:46.550Z,5.90
2023-04-06T19:52:13.738Z,5.80
2023-04-06T19:54:41.095Z,5.60
2023-04-06T19:57:08.365Z,5.65
2023-04-06T19:59:36.932Z,5.80
2023-04-06T20:02:04.196Z,5.90
2023-04-06T20:04:31.582Z,6.05
2023-04-06T20:06:58.830Z,6.20
2023-04-06T20:09:26.350Z,6.68
2023-04-06T20:11:54.245Z,6.32
2023-04-06T20:14:22.764Z,6.10
2023-04-06T20:16:52.488Z,7.00
2023-04-06T20:19:19.699Z,7.28
2023-04-06T20:21:48.204Z,7.13
2023-04-06T20:24:15.819Z,7.57
2023-04-06T20:26:42.999Z,6.83
2023-04-06T20:29:10.374Z,7.68
2023-04-06T20:31:37.666Z,7.40
2023-04-06T20:34:06.266Z,7.32
2023-04-06T20:36:34.273Z,7.30
2023-04-06T20:39:01.511Z,7.37
2023-04-06T20:41:28.701Z,7.22
2023-04-06T20:43:55.876Z,7.95
2023-04-06T20:46:23.148Z,9.00
2023-04-06T20:48:50.393Z,7.72
2023-04-06T20:51:20.334Z,7.80
2023-04-06T20:53:48.511Z,7.88
2023-04-06T20:56:15.838Z,7.82
2023-04-06T20:58:43.037Z,8.80
2023-04-06T21:01:14.160Z,7.95
2023-04-06T21:03:41.855Z,7.73
2023-04-06T21:06:09.821Z,8.07
2023-04-06T21:08:38.437Z,8.35
2023-04-06T21:11:06.259Z,7.63
2023-04-06T21:13:34.041Z,7.38
2023-04-06T21:16:01.801Z,7.83
2023-04-06T21:18:30.597Z,7.40
2023-04-06T21:20:58.183Z,7.03
2023-04-06T21:23:25.528Z,7.03
2023-04-06T21:25:56.966Z,6.72
2023-04-06T21:28:24.618Z,7.07
2023-04-06T21:30:52.553Z,6.65
2023-04-06T21:33:19.923Z,7.25
2023-04-06T21:35:47.482Z,7.60
2023-04-06T21:38:14.737Z,6.90
2023-04-06T21:40:41.979Z,6.57
2023-04-06T21:43:10.538Z,6.30
2023-04-06T21:45:37.771Z,6.75
2023-04-06T21:48:05.699Z,7.15
2023-04-06T21:50:32.944Z,6.30
2023-04-06T21:53:00.209Z,6.73
2023-04-06T21:55:27.442Z,6.72
2023-04-06T21:57:54.630Z,7.03
2023-04-06T22:00:23.361Z,6.60
2023-04-06T22:02:50.829Z,7.15
2023-04-06T22:05:18.363Z,6.40
2023-04-06T22:07:46.439Z,7.28
2023-04-06T22:10:13.662Z,6.90
2023-04-06T22:12:40.947Z,6.80
2023-04-06T22:15:11.687Z,6.68
2023-04-06T22:17:40.395Z,7.00
2023-04-06T22:20:08.054Z,7.05
2023-04-06T22:22:35.442Z,6.60
2023-04-06T22:25:02.735Z,6.82
2023-04-06T22:27:29.940Z,7.30
2023-04-06T22:29:57.132Z,7.00
2023-04-06T22:32:24.503Z,7.40
2023-04-06T22:34:53.169Z,7.53
2023-04-06T22:37:20.342Z,6.93
2023-04-06T22:39:47.607Z,7.15
2023-04-06T22:42:14.837Z,7.03
2023-04-06T22:44:42.013Z,7.03
2023-04-06T22:47:09.259Z,7.57
2023-04-06T22:49:36.453Z,7.95
2023-04-06T22:52:05.326Z,7.75
2023-04-06T22:54:32.527Z,7.70
2023-04-06T22:56:59.762Z,8.27
2023-04-06T22:59:26.959Z,8.13
2023-04-06T23:01:54.279Z,8.05
2023-04-06T23:04:21.751Z,7.95
2023-04-06T23:06:49.085Z,7.63
2023-04-06T23:09:17.569Z,7.57
2023-04-06T23:11:44.895Z,7.70
2023-04-06T23:14:12.105Z,7.68
2023-04-06T23:16:39.317Z,7.65
2023-04-06T23:19:06.612Z,7.83
2023-04-06T23:21:34.067Z,8.23
2023-04-06T23:24:01.601Z,8.13
2023-04-06T23:26:30.493Z,8.02
2023-04-06T23:28:57.661Z,8.02
2023-04-06T23:31:24.840Z,7.70
2023-04-06T23:33:52.041Z,8.55
2023-04-06T23:36:19.264Z,8.38
2023-04-06T23:38:46.427Z,8.52
2023-04-06T23:41:14.200Z,8.43
2023-04-06T23:43:42.706Z,8.57
2023-04-06T23:46:10.106Z,8.18
2023-04-06T23:48:39.335Z,9.18
2023-04-06T23:51:06.702Z,8.18
2023-04-06T23:53:33.972Z,8.45
2023-04-06T23:56:01.345Z,8.70
2023-04-06T23:58:28.660Z,8.65
